sensor_id;sensor_type;location;lat;lon;timestamp;pressure;altitude;pressure_sealevel;temperature;humidity
23253;BME280;11795;47.054;15.408;2022-11-21T00:00:00;96790;;;4.2;92.4
23253;BME280;11795;47.054;15.408;2022-11-21T00:02:00;96790;;;4.1;92.6
23253;BME280;11795;47.054;15.408;2022-11-21T00:04:00;96790;;;4.2;92.7
23253;BME280;11795;47.054;15.408;2022-11-21T00:06:02;96780;;;4.1;92.5
23253;BME280;11795;47.054;15.408;2022-11-21T00:08:00;96780;;;4.0;92.8
23253;BME280;11795;47.054;15.408;2022-11-21T00:10:00;96780;;;4.1;92.4
23253;BME280;11795;47.054;15.408;2022-11-21T00:12:00;96780;;;4.0;92.7
23253;BME280;11795;47.054;15.408;2022-11-21T00:14:00;96770;;;4.2;92.8
23253;BME280;11795;47.054;15.408;2022-11-21T00:16:03;96770;;;4.0;92.5
23253;BME280;11795;47.054;15.408;2022-11-21T00:18:01;96770;;;4.0;93.0
23253;BME280;11795;47.054;15.408;2022-11-21T00:20:00;96770;;;4.1;92.4
23253;BME280;11795;47.054;15.408;2022-11-21T00:22:00;96760;;;4.0;92.7
23253;BME280;11795;47.054;15.408;2022-11-21T00:24:00;96770;;;4.2;92.7
23253;BME280;11795;47.054;15.408;2022-11-21T00:26:03;96760;;;4.0;92.5
23253;BME280;11795;47.054;15.408;2022-11-21T00:28:00;96760;;;4.0;92.8
23253;BME280;11795;47.054;15.408;2022-11-21T00:30:00;96750;;;4.1;92.3
23253;BME280;11795;47.054;15.408;2022-11-21T00:32:00;96750;;;4.0;92.6
23253;BME280;11795;47.054;15.408;2022-11-21T00:34:00;96750;;;4.1;92.7
23253;BME280;11795;47.054;15.408;2022-11-21T00:36:05;96750;;;4.0;92.4
23253;BME280;11795;47.054;15.408;2022-11-21T00:38:00;96750;;;3.8;92.7
23253;BME280;11795;47.054;15.408;2022-11-21T00:40:00;96750;;;4.0;92.2
23253;BME280;11795;47.054;15.408;2022-11-21T00:42:00;96750;;;3.8;92.7
23253;BME280;11795;47.054;15.408;2022-11-21T00:44:00;96750;;;4.0;92.8
23253;BME280;11795;47.054;15.408;2022-11-21T00:46:01;96750;;;3.9;92.6
23253;BME280;11795;47.054;15.408;2022-11-21T00:48:00;96750;;;3.8;92.9
23253;BME280;11795;47.054;15.408;2022-11-21T00:50:00;96750;;;3.9;92.5
23253;BME280;11795;47.054;15.408;2022-11-21T00:52:00;96740;;;3.8;92.7
23253;BME280;11795;47.054;15.408;2022-11-21T00:54:00;96740;;;3.9;92.8
23253;BME280;11795;47.054;15.408;2022-11-21T00:56:00;96730;;;3.8;92.5
23253;BME280;11795;47.054;15.408;2022-11-21T00:58:00;96730;;;3.7;92.9
23253;BME280;11795;47.054;15.408;2022-11-21T01:00:00;96730;;;3.8;92.6
23253;BME280;11795;47.054;15.408;2022-11-21T01:02:00;96720;;;3.7;93.0
23253;BME280;11795;47.054;15.408;2022-11-21T01:04:00;96720;;;3.8;93.1
23253;BME280;11795;47.054;15.408;2022-11-21T01:06:04;96730;;;3.7;92.9
23253;BME280;11795;47.054;15.408;2022-11-21T01:08:00;96730;;;3.6;93.4
23253;BME280;11795;47.054;15.408;2022-11-21T01:10:00;96740;;;3.8;92.9
23253;BME280;11795;47.054;15.408;2022-11-21T01:12:00;96730;;;3.6;93.3
23253;BME280;11795;47.054;15.408;2022-11-21T01:14:00;96720;;;3.8;93.2
23253;BME280;11795;47.054;15.408;2022-11-21T01:16:03;96720;;;3.7;93.0
23253;BME280;11795;47.054;15.408;2022-11-21T01:18:00;96720;;;3.7;92.3
23253;BME280;11795;47.054;15.408;2022-11-21T01:20:00;96730;;;3.7;91.7
23253;BME280;11795;47.054;15.408;2022-11-21T01:22:00;96730;;;3.5;92.3
23253;BME280;11795;47.054;15.408;2022-11-21T01:24:01;96730;;;3.5;92.5
23253;BME280;11795;47.054;15.408;2022-11-21T01:26:01;96720;;;3.4;92.3
23253;BME280;11795;47.054;15.408;2022-11-21T01:28:00;96720;;;3.2;93.2
23253;BME280;11795;47.054;15.408;2022-11-21T01:30:00;96720;;;3.2;93.4
23253;BME280;11795;47.054;15.408;2022-11-21T01:32:00;96720;;;3.1;93.9
23253;BME280;11795;47.054;15.408;2022-11-21T01:34:00;96720;;;3.2;94.5
23253;BME280;11795;47.054;15.408;2022-11-21T01:36:09;96720;;;3.1;94.5
23253;BME280;11795;47.054;15.408;2022-11-21T01:38:00;96720;;;3.1;94.8
23253;BME280;11795;47.054;15.408;2022-11-21T01:40:00;96720;;;3.2;94.5
23253;BME280;11795;47.054;15.408;2022-11-21T01:42:00;96720;;;3.1;94.9
23253;BME280;11795;47.054;15.408;2022-11-21T01:44:01;96710;;;3.2;95.3
23253;BME280;11795;47.054;15.408;2022-11-21T01:46:04;96710;;;3.2;95.0
23253;BME280;11795;47.054;15.408;2022-11-21T01:48:00;96710;;;3.2;95.0
23253;BME280;11795;47.054;15.408;2022-11-21T01:50:00;96710;;;3.2;94.7
23253;BME280;11795;47.054;15.408;2022-11-21T01:52:02;96710;;;3.1;94.5
23253;BME280;11795;47.054;15.408;2022-11-21T01:54:05;96710;;;3.1;95.1
23253;BME280;11795;47.054;15.408;2022-11-21T01:56:00;96710;;;3.1;95.1
23253;BME280;11795;47.054;15.408;2022-11-21T01:58:01;96700;;;3.0;95.4
23253;BME280;11795;47.054;15.408;2022-11-21T02:00:03;96700;;;3.1;95.0
23253;BME280;11795;47.054;15.408;2022-11-21T02:02:02;96700;;;3.0;95.4
23253;BME280;11795;47.054;15.408;2022-11-21T02:04:01;96700;;;3.2;95.7
23253;BME280;11795;47.054;15.408;2022-11-21T02:06:00;96700;;;3.0;95.4
23253;BME280;11795;47.054;15.408;2022-11-21T02:08:04;96700;;;3.0;95.5
23253;BME280;11795;47.054;15.408;2022-11-21T02:10:02;96700;;;3.1;95.2
23253;BME280;11795;47.054;15.408;2022-11-21T02:12:04;96700;;;3.0;95.6
23253;BME280;11795;47.054;15.408;2022-11-21T02:14:00;96700;;;3.1;95.9
23253;BME280;11795;47.054;15.408;2022-11-21T02:16:00;96700;;;3.1;95.4
23253;BME280;11795;47.054;15.408;2022-11-21T02:18:00;96690;;;3.0;95.6
23253;BME280;11795;47.054;15.408;2022-11-21T02:20:02;96690;;;3.1;94.4
23253;BME280;11795;47.054;15.408;2022-11-21T02:22:04;96690;;;2.9;94.3
23253;BME280;11795;47.054;15.408;2022-11-21T02:24:03;96690;;;2.9;95.2
23253;BME280;11795;47.054;15.408;2022-11-21T02:26:00;96690;;;2.8;95.2
23253;BME280;11795;47.054;15.408;2022-11-21T02:28:02;96680;;;2.7;95.9
23253;BME280;11795;47.054;15.408;2022-11-21T02:30:01;96680;;;2.8;95.7
23253;BME280;11795;47.054;15.408;2022-11-21T02:32:02;96670;;;2.7;96.1
23253;BME280;11795;47.054;15.408;2022-11-21T02:34:00;96670;;;2.8;96.5
23253;BME280;11795;47.054;15.408;2022-11-21T02:36:01;96670;;;2.8;96.3
23253;BME280;11795;47.054;15.408;2022-11-21T02:38:02;96670;;;2.7;96.0
23253;BME280;11795;47.054;15.408;2022-11-21T02:40:02;96670;;;2.7;96.0
23253;BME280;11795;47.054;15.408;2022-11-21T02:42:05;96660;;;2.6;96.2
23253;BME280;11795;47.054;15.408;2022-11-21T02:44:03;96660;;;2.6;96.5
23253;BME280;11795;47.054;15.408;2022-11-21T02:46:00;96660;;;2.6;97.0
23253;BME280;11795;47.054;15.408;2022-11-21T02:48:00;96660;;;2.5;97.3
23253;BME280;11795;47.054;15.408;2022-11-21T02:50:08;96650;;;2.7;97.0
23253;BME280;11795;47.054;15.408;2022-11-21T02:52:00;96650;;;2.5;97.1
23253;BME280;11795;47.054;15.408;2022-11-21T02:54:00;96650;;;2.6;97.4
23253;BME280;11795;47.054;15.408;2022-11-21T02:56:00;96650;;;2.5;97.1
23253;BME280;11795;47.054;15.408;2022-11-21T02:58:00;96650;;;2.5;97.7
23253;BME280;11795;47.054;15.408;2022-11-21T03:00:00;96650;;;2.7;97.4
23253;BME280;11795;47.054;15.408;2022-11-21T03:02:01;96640;;;2.6;97.6
23253;BME280;11795;47.054;15.408;2022-11-21T03:04:00;96640;;;2.7;97.9
23253;BME280;11795;47.054;15.408;2022-11-21T03:06:00;96640;;;2.6;97.4
23253;BME280;11795;47.054;15.408;2022-11-21T03:08:00;96640;;;2.6;97.6
23253;BME280;11795;47.054;15.408;2022-11-21T03:10:00;96640;;;2.7;97.1
23253;BME280;11795;47.054;15.408;2022-11-21T03:12:04;96640;;;2.5;97.0
23253;BME280;11795;47.054;15.408;2022-11-21T03:14:00;96640;;;2.5;97.6
23253;BME280;11795;47.054;15.408;2022-11-21T03:16:00;96640;;;2.5;96.8
23253;BME280;11795;47.054;15.408;2022-11-21T03:18:02;96640;;;2.3;97.1
23253;BME280;11795;47.054;15.408;2022-11-21T03:20:01;96640;;;2.5;96.9
23253;BME280;11795;47.054;15.408;2022-11-21T03:22:00;96640;;;2.4;97.1
23253;BME280;11795;47.054;15.408;2022-11-21T03:24:00;96630;;;2.5;96.9
23253;BME280;11795;47.054;15.408;2022-11-21T03:26:00;96640;;;2.3;96.7
23253;BME280;11795;47.054;15.408;2022-11-21T03:28:00;96640;;;2.2;97.3
23253;BME280;11795;47.054;15.408;2022-11-21T03:30:00;96630;;;2.4;97.0
23253;BME280;11795;47.054;15.408;2022-11-21T03:32:00;96640;;;2.3;96.4
23253;BME280;11795;47.054;15.408;2022-11-21T03:34:00;96640;;;2.3;96.4
23253;BME280;11795;47.054;15.408;2022-11-21T03:36:00;96630;;;2.1;96.9
23253;BME280;11795;47.054;15.408;2022-11-21T03:38:00;96640;;;2.0;97.4
23253;BME280;11795;47.054;15.408;2022-11-21T03:40:00;96640;;;2.1;97.3
23253;BME280;11795;47.054;15.408;2022-11-21T03:42:00;96640;;;2.0;97.8
23253;BME280;11795;47.054;15.408;2022-11-21T03:44:02;96630;;;1.9;98.1
23253;BME280;11795;47.054;15.408;2022-11-21T03:46:00;96630;;;1.9;98.1
23253;BME280;11795;47.054;15.408;2022-11-21T03:48:00;96630;;;2.1;98.4
23253;BME280;11795;47.054;15.408;2022-11-21T03:50:00;96630;;;2.2;97.5
23253;BME280;11795;47.054;15.408;2022-11-21T03:52:00;96630;;;2.0;97.7
23253;BME280;11795;47.054;15.408;2022-11-21T03:54:00;96630;;;2.0;98.1
23253;BME280;11795;47.054;15.408;2022-11-21T03:56:00;96630;;;1.9;98.2
23253;BME280;11795;47.054;15.408;2022-11-21T03:58:00;96630;;;1.8;98.9
23253;BME280;11795;47.054;15.408;2022-11-21T04:00:00;96630;;;1.9;99.2
23253;BME280;11795;47.054;15.408;2022-11-21T04:02:00;96630;;;1.9;99.3
23253;BME280;11795;47.054;15.408;2022-11-21T04:04:00;96630;;;2.1;99.2
23253;BME280;11795;47.054;15.408;2022-11-21T04:06:00;96630;;;1.9;98.9
23253;BME280;11795;47.054;15.408;2022-11-21T04:08:00;96640;;;1.8;99.4
23253;BME280;11795;47.054;15.408;2022-11-21T04:10:00;96630;;;2.0;99.2
23253;BME280;11795;47.054;15.408;2022-11-21T04:12:00;96640;;;1.9;99.4
23253;BME280;11795;47.054;15.408;2022-11-21T04:14:00;96640;;;2.0;99.7
23253;BME280;11795;47.054;15.408;2022-11-21T04:16:00;96640;;;2.0;99.4
23253;BME280;11795;47.054;15.408;2022-11-21T04:18:00;96640;;;1.9;99.9
23253;BME280;11795;47.054;15.408;2022-11-21T04:20:00;96640;;;2.1;99.3
23253;BME280;11795;47.054;15.408;2022-11-21T04:22:00;96650;;;1.9;99.2
23253;BME280;11795;47.054;15.408;2022-11-21T04:24:00;96650;;;2.0;99.6
23253;BME280;11795;47.054;15.408;2022-11-21T04:26:00;96650;;;2.0;99.3
23253;BME280;11795;47.054;15.408;2022-11-21T04:28:01;96660;;;1.9;99.7
23253;BME280;11795;47.054;15.408;2022-11-21T04:30:00;96650;;;2.0;99.6
23253;BME280;11795;47.054;15.408;2022-11-21T04:32:00;96660;;;2.0;99.6
23253;BME280;11795;47.054;15.408;2022-11-21T04:34:00;96660;;;2.1;99.9
23253;BME280;11795;47.054;15.408;2022-11-21T04:36:00;96660;;;2.0;99.3
23253;BME280;11795;47.054;15.408;2022-11-21T04:38:00;96650;;;2.0;99.8
23253;BME280;11795;47.054;15.408;2022-11-21T04:40:00;96640;;;2.2;98.7
23253;BME280;11795;47.054;15.408;2022-11-21T04:42:00;96640;;;1.9;98.5
23253;BME280;11795;47.054;15.408;2022-11-21T04:44:00;96630;;;1.9;98.7
23253;BME280;11795;47.054;15.408;2022-11-21T04:46:00;96620;;;1.9;98.1
23253;BME280;11795;47.054;15.408;2022-11-21T04:48:00;96620;;;1.9;98.3
23253;BME280;11795;47.054;15.408;2022-11-21T04:50:00;96620;;;1.8;98.8
23253;BME280;11795;47.054;15.408;2022-11-21T04:52:01;96640;;;1.8;98.9
23253;BME280;11795;47.054;15.408;2022-11-21T04:54:00;96640;;;1.8;99.3
23253;BME280;11795;47.054;15.408;2022-11-21T04:56:02;96640;;;1.8;99.1
23253;BME280;11795;47.054;15.408;2022-11-21T04:58:00;96640;;;1.8;99.6
23253;BME280;11795;47.054;15.408;2022-11-21T05:00:00;96630;;;2.0;99.5
23253;BME280;11795;47.054;15.408;2022-11-21T05:02:01;96630;;;1.9;99.5
23253;BME280;11795;47.054;15.408;2022-11-21T05:04:00;96630;;;1.9;99.9
23253;BME280;11795;47.054;15.408;2022-11-21T05:06:00;96620;;;1.9;99.5
23253;BME280;11795;47.054;15.408;2022-11-21T05:08:00;96610;;;1.9;99.9
23253;BME280;11795;47.054;15.408;2022-11-21T05:10:00;96630;;;2.0;99.5
23253;BME280;11795;47.054;15.408;2022-11-21T05:12:10;96620;;;1.9;99.7
23253;BME280;11795;47.054;15.408;2022-11-21T05:14:00;96610;;;1.9;99.8
23253;BME280;11795;47.054;15.408;2022-11-21T05:16:00;96610;;;1.9;99.4
23253;BME280;11795;47.054;15.408;2022-11-21T05:18:00;96610;;;1.9;99.8
23253;BME280;11795;47.054;15.408;2022-11-21T05:20:00;96610;;;2.1;99.6
23253;BME280;11795;47.054;15.408;2022-11-21T05:22:00;96610;;;2.0;99.6
23253;BME280;11795;47.054;15.408;2022-11-21T05:24:00;96610;;;2.0;100.0
23253;BME280;11795;47.054;15.408;2022-11-21T05:26:00;96610;;;2.0;99.4
23253;BME280;11795;47.054;15.408;2022-11-21T05:28:00;96620;;;2.0;99.7
23253;BME280;11795;47.054;15.408;2022-11-21T05:30:00;96620;;;2.1;99.2
23253;BME280;11795;47.054;15.408;2022-11-21T05:32:00;96620;;;2.0;99.3
23253;BME280;11795;47.054;15.408;2022-11-21T05:34:00;96620;;;2.0;99.7
23253;BME280;11795;47.054;15.408;2022-11-21T05:36:00;96620;;;2.0;99.3
23253;BME280;11795;47.054;15.408;2022-11-21T05:38:00;96610;;;2.0;99.6
23253;BME280;11795;47.054;15.408;2022-11-21T05:40:00;96620;;;2.2;99.3
23253;BME280;11795;47.054;15.408;2022-11-21T05:42:00;96630;;;2.0;99.4
23253;BME280;11795;47.054;15.408;2022-11-21T05:44:00;96620;;;2.1;99.7
23253;BME280;11795;47.054;15.408;2022-11-21T05:46:00;96620;;;2.1;99.2
23253;BME280;11795;47.054;15.408;2022-11-21T05:48:00;96630;;;2.0;99.4
23253;BME280;11795;47.054;15.408;2022-11-21T05:50:00;96630;;;2.2;99.2
23253;BME280;11795;47.054;15.408;2022-11-21T05:52:00;96630;;;2.1;99.1
23253;BME280;11795;47.054;15.408;2022-11-21T05:54:00;96630;;;2.2;98.7
23253;BME280;11795;47.054;15.408;2022-11-21T05:56:02;96630;;;2.2;98.3
23253;BME280;11795;47.054;15.408;2022-11-21T05:58:00;96620;;;2.0;98.4
23253;BME280;11795;47.054;15.408;2022-11-21T06:00:00;96630;;;2.2;98.0
23253;BME280;11795;47.054;15.408;2022-11-21T06:02:10;96630;;;2.0;98.3
23253;BME280;11795;47.054;15.408;2022-11-21T06:04:00;96620;;;2.1;98.4
23253;BME280;11795;47.054;15.408;2022-11-21T06:06:02;96630;;;2.1;98.0
23253;BME280;11795;47.054;15.408;2022-11-21T06:08:00;96620;;;2.0;98.4
23253;BME280;11795;47.054;15.408;2022-11-21T06:10:00;96620;;;2.1;98.4
23253;BME280;11795;47.054;15.408;2022-11-21T06:12:00;96620;;;2.2;97.8
23253;BME280;11795;47.054;15.408;2022-11-21T06:14:00;96620;;;2.1;97.8
23253;BME280;11795;47.054;15.408;2022-11-21T06:16:02;96620;;;2.1;97.3
23253;BME280;11795;47.054;15.408;2022-11-21T06:18:00;96620;;;2.0;97.7
23253;BME280;11795;47.054;15.408;2022-11-21T06:20:00;96620;;;2.1;97.7
23253;BME280;11795;47.054;15.408;2022-11-21T06:22:00;96620;;;2.0;98.0
23253;BME280;11795;47.054;15.408;2022-11-21T06:24:00;96620;;;2.0;98.4
23253;BME280;11795;47.054;15.408;2022-11-21T06:26:02;96620;;;2.1;98.1
23253;BME280;11795;47.054;15.408;2022-11-21T06:28:00;96620;;;2.0;98.4
23253;BME280;11795;47.054;15.408;2022-11-21T06:30:00;96620;;;2.2;97.9
23253;BME280;11795;47.054;15.408;2022-11-21T06:32:00;96620;;;2.1;97.8
23253;BME280;11795;47.054;15.408;2022-11-21T06:34:00;96620;;;2.0;98.0
23253;BME280;11795;47.054;15.408;2022-11-21T06:36:01;96630;;;2.1;97.7
23253;BME280;11795;47.054;15.408;2022-11-21T06:38:00;96630;;;2.1;98.0
23253;BME280;11795;47.054;15.408;2022-11-21T06:40:00;96630;;;2.2;97.8
23253;BME280;11795;47.054;15.408;2022-11-21T06:42:00;96630;;;2.1;97.8
23253;BME280;11795;47.054;15.408;2022-11-21T06:44:00;96630;;;2.2;98.1
23253;BME280;11795;47.054;15.408;2022-11-21T06:46:02;96640;;;2.2;97.6
23253;BME280;11795;47.054;15.408;2022-11-21T06:48:01;96640;;;2.2;97.9
23253;BME280;11795;47.054;15.408;2022-11-21T06:50:00;96640;;;2.4;97.7
23253;BME280;11795;47.054;15.408;2022-11-21T06:52:00;96630;;;2.3;97.8
23253;BME280;11795;47.054;15.408;2022-11-21T06:54:00;96630;;;2.3;98.0
23253;BME280;11795;47.054;15.408;2022-11-21T06:56:00;96630;;;2.4;97.4
23253;BME280;11795;47.054;15.408;2022-11-21T06:58:00;96630;;;2.4;97.7
23253;BME280;11795;47.054;15.408;2022-11-21T07:00:00;96620;;;2.6;97.1
23253;BME280;11795;47.054;15.408;2022-11-21T07:02:00;96630;;;2.5;97.0
23253;BME280;11795;47.054;15.408;2022-11-21T07:04:00;96630;;;2.5;96.8
23253;BME280;11795;47.054;15.408;2022-11-21T07:06:01;96630;;;2.5;95.9
23253;BME280;11795;47.054;15.408;2022-11-21T07:08:01;96630;;;2.7;95.1
23253;BME280;11795;47.054;15.408;2022-11-21T07:10:00;96630;;;2.7;92.8
23253;BME280;11795;47.054;15.408;2022-11-21T07:12:10;96630;;;2.5;92.6
23253;BME280;11795;47.054;15.408;2022-11-21T07:14:00;96640;;;2.5;93.3
23253;BME280;11795;47.054;15.408;2022-11-21T07:16:02;96640;;;2.5;92.9
23253;BME280;11795;47.054;15.408;2022-11-21T07:18:00;96640;;;2.4;93.7
23253;BME280;11795;47.054;15.408;2022-11-21T07:20:00;96630;;;2.5;94.0
23253;BME280;11795;47.054;15.408;2022-11-21T07:22:00;96640;;;2.4;94.3
23253;BME280;11795;47.054;15.408;2022-11-21T07:24:00;96640;;;2.5;94.7
23253;BME280;11795;47.054;15.408;2022-11-21T07:26:01;96640;;;2.5;94.2
23253;BME280;11795;47.054;15.408;2022-11-21T07:28:01;96650;;;2.5;94.6
23253;BME280;11795;47.054;15.408;2022-11-21T07:30:00;96650;;;2.7;94.4
23253;BME280;11795;47.054;15.408;2022-11-21T07:32:00;96640;;;2.6;94.6
23253;BME280;11795;47.054;15.408;2022-11-21T07:34:00;96640;;;2.6;95.0
23253;BME280;11795;47.054;15.408;2022-11-21T07:36:00;96640;;;2.7;94.2
23253;BME280;11795;47.054;15.408;2022-11-21T07:38:01;96640;;;2.7;94.8
23253;BME280;11795;47.054;15.408;2022-11-21T07:40:00;96640;;;2.8;94.6
23253;BME280;11795;47.054;15.408;2022-11-21T07:42:00;96630;;;2.7;94.5
23253;BME280;11795;47.054;15.408;2022-11-21T07:44:00;96630;;;2.7;94.7
23253;BME280;11795;47.054;15.408;2022-11-21T07:46:00;96630;;;2.8;94.3
23253;BME280;11795;47.054;15.408;2022-11-21T07:48:02;96640;;;2.7;94.7
23253;BME280;11795;47.054;15.408;2022-11-21T07:50:00;96650;;;2.9;94.5
23253;BME280;11795;47.054;15.408;2022-11-21T07:52:00;96640;;;2.8;94.2
23253;BME280;11795;47.054;15.408;2022-11-21T07:54:00;96650;;;2.8;94.8
23253;BME280;11795;47.054;15.408;2022-11-21T07:56:00;96640;;;3.0;93.6
23253;BME280;11795;47.054;15.408;2022-11-21T07:58:01;96630;;;2.9;93.3
23253;BME280;11795;47.054;15.408;2022-11-21T08:00:00;96640;;;3.0;93.3
23253;BME280;11795;47.054;15.408;2022-11-21T08:02:00;96640;;;3.0;93.6
23253;BME280;11795;47.054;15.408;2022-11-21T08:04:00;96640;;;3.0;93.9
23253;BME280;11795;47.054;15.408;2022-11-21T08:06:01;96630;;;3.1;93.6
23253;BME280;11795;47.054;15.408;2022-11-21T08:08:00;96640;;;3.1;93.8
23253;BME280;11795;47.054;15.408;2022-11-21T08:10:00;96630;;;3.3;93.4
23253;BME280;11795;47.054;15.408;2022-11-21T08:12:00;96630;;;3.2;93.6
23253;BME280;11795;47.054;15.408;2022-11-21T08:14:00;96620;;;3.3;93.9
23253;BME280;11795;47.054;15.408;2022-11-21T08:16:02;96630;;;3.5;93.3
23253;BME280;11795;47.054;15.408;2022-11-21T08:18:05;96630;;;3.5;92.1
23253;BME280;11795;47.054;15.408;2022-11-21T08:20:01;96630;;;3.7;91.9
23253;BME280;11795;47.054;15.408;2022-11-21T08:22:00;96620;;;3.6;92.3
23253;BME280;11795;47.054;15.408;2022-11-21T08:24:00;96610;;;3.6;92.5
23253;BME280;11795;47.054;15.408;2022-11-21T08:26:00;96610;;;3.7;91.9
23253;BME280;11795;47.054;15.408;2022-11-21T08:28:02;96610;;;3.7;92.3
23253;BME280;11795;47.054;15.408;2022-11-21T08:30:00;96600;;;4.0;91.7
23253;BME280;11795;47.054;15.408;2022-11-21T08:32:00;96600;;;3.9;91.5
23253;BME280;11795;47.054;15.408;2022-11-21T08:34:00;96600;;;4.0;91.7
23253;BME280;11795;47.054;15.408;2022-11-21T08:36:03;96600;;;4.2;91.0
23253;BME280;11795;47.054;15.408;2022-11-21T08:38:00;96600;;;4.2;90.6
23253;BME280;11795;47.054;15.408;2022-11-21T08:40:01;96600;;;4.7;89.2
23253;BME280;11795;47.054;15.408;2022-11-21T08:42:04;96600;;;4.8;89.0
23253;BME280;11795;47.054;15.408;2022-11-21T08:44:00;96600;;;4.9;87.9
23253;BME280;11795;47.054;15.408;2022-11-21T08:46:00;96600;;;5.0;86.8
23253;BME280;11795;47.054;15.408;2022-11-21T08:48:00;96600;;;5.2;86.8
23253;BME280;11795;47.054;15.408;2022-11-21T08:50:00;96600;;;5.9;85.4
23253;BME280;11795;47.054;15.408;2022-11-21T08:52:00;96610;;;6.2;82.9
23253;BME280;11795;47.054;15.408;2022-11-21T08:54:00;96610;;;6.5;79.6
23253;BME280;11795;47.054;15.408;2022-11-21T08:56:00;96610;;;6.8;76.9
23253;BME280;11795;47.054;15.408;2022-11-21T08:58:00;96610;;;6.7;76.1
23253;BME280;11795;47.054;15.408;2022-11-21T09:00:00;96610;;;6.6;75.8
23253;BME280;11795;47.054;15.408;2022-11-21T09:02:00;96600;;;6.2;76.0
23253;BME280;11795;47.054;15.408;2022-11-21T09:04:00;96600;;;5.9;77.0
23253;BME280;11795;47.054;15.408;2022-11-21T09:06:00;96610;;;5.9;77.9
23253;BME280;11795;47.054;15.408;2022-11-21T09:08:00;96610;;;5.6;78.1
23253;BME280;11795;47.054;15.408;2022-11-21T09:10:00;96610;;;5.6;79.1
23253;BME280;11795;47.054;15.408;2022-11-21T09:12:00;96620;;;5.6;81.0
23253;BME280;11795;47.054;15.408;2022-11-21T09:14:10;96620;;;5.9;80.7
23253;BME280;11795;47.054;15.408;2022-11-21T09:16:10;96610;;;6.4;79.9
23253;BME280;11795;47.054;15.408;2022-11-21T09:18:04;96610;;;6.8;79.4
23253;BME280;11795;47.054;15.408;2022-11-21T09:20:00;96600;;;7.4;76.5
23253;BME280;11795;47.054;15.408;2022-11-21T09:22:00;96600;;;7.4;74.4
23253;BME280;11795;47.054;15.408;2022-11-21T09:28:00;96600;;;7.2;73.8
23253;BME280;11795;47.054;15.408;2022-11-21T09:30:00;96590;;;7.4;73.0
23253;BME280;11795;47.054;15.408;2022-11-21T09:32:00;96590;;;7.4;72.8
23253;BME280;11795;47.054;15.408;2022-11-21T09:34:00;96590;;;7.7;72.2
23253;BME280;11795;47.054;15.408;2022-11-21T09:36:00;96590;;;8.2;70.9
23253;BME280;11795;47.054;15.408;2022-11-21T09:38:01;96590;;;8.0;69.6
23253;BME280;11795;47.054;15.408;2022-11-21T09:40:00;96590;;;8.2;69.5
23253;BME280;11795;47.054;15.408;2022-11-21T09:42:13;96580;;;8.5;68.9
23253;BME280;11795;47.054;15.408;2022-11-21T09:44:05;96580;;;8.8;67.4
23253;BME280;11795;47.054;15.408;2022-11-21T09:46:05;96580;;;9.2;66.6
23253;BME280;11795;47.054;15.408;2022-11-21T09:48:03;96580;;;9.2;64.6
23253;BME280;11795;47.054;15.408;2022-11-21T09:50:02;96580;;;9.3;65.2
23253;BME280;11795;47.054;15.408;2022-11-21T09:52:00;96570;;;9.4;64.7
23253;BME280;11795;47.054;15.408;2022-11-21T09:54:03;96570;;;9.3;64.4
23253;BME280;11795;47.054;15.408;2022-11-21T09:56:05;96570;;;9.4;63.9
23253;BME280;11795;47.054;15.408;2022-11-21T09:58:03;96570;;;9.5;64.4
23253;BME280;11795;47.054;15.408;2022-11-21T10:00:03;96570;;;9.6;64.1
23253;BME280;11795;47.054;15.408;2022-11-21T10:02:00;96570;;;9.6;64.6
23253;BME280;11795;47.054;15.408;2022-11-21T10:04:01;96570;;;9.6;64.5
23253;BME280;11795;47.054;15.408;2022-11-21T10:06:03;96560;;;9.5;62.1
23253;BME280;11795;47.054;15.408;2022-11-21T10:08:06;96570;;;9.3;62.1
23253;BME280;11795;47.054;15.408;2022-11-21T10:10:14;96560;;;9.5;63.9
23253;BME280;11795;47.054;15.408;2022-11-21T10:12:17;96560;;;9.6;61.6
23253;BME280;11795;47.054;15.408;2022-11-21T10:14:10;96560;;;9.7;61.3
23253;BME280;11795;47.054;15.408;2022-11-21T10:16:08;96550;;;9.7;60.3
23253;BME280;11795;47.054;15.408;2022-11-21T10:18:17;96550;;;9.5;61.3
23253;BME280;11795;47.054;15.408;2022-11-21T10:20:12;96540;;;9.6;61.2
23253;BME280;11795;47.054;15.408;2022-11-21T10:24:13;96530;;;9.2;62.0
23253;BME280;11795;47.054;15.408;2022-11-21T10:26:08;96530;;;9.2;61.9
23253;BME280;11795;47.054;15.408;2022-11-21T10:28:05;96530;;;8.9;62.7
23253;BME280;11795;47.054;15.408;2022-11-21T10:30:02;96540;;;9.1;63.4
23253;BME280;11795;47.054;15.408;2022-11-21T10:32:02;96540;;;9.0;63.3
23253;BME280;11795;47.054;15.408;2022-11-21T10:34:02;96540;;;9.0;63.4
23253;BME280;11795;47.054;15.408;2022-11-21T10:36:04;96540;;;9.1;64.0
23253;BME280;11795;47.054;15.408;2022-11-21T10:38:01;96540;;;9.0;64.2
23253;BME280;11795;47.054;15.408;2022-11-21T10:40:09;96540;;;9.2;62.9
23253;BME280;11795;47.054;15.408;2022-11-21T10:42:04;96540;;;9.0;62.4
23253;BME280;11795;47.054;15.408;2022-11-21T10:44:19;96530;;;8.8;63.3
23253;BME280;11795;47.054;15.408;2022-11-21T10:46:00;96530;;;8.9;63.8
23253;BME280;11795;47.054;15.408;2022-11-21T10:48:00;96530;;;8.6;63.6
23253;BME280;11795;47.054;15.408;2022-11-21T10:50:09;96520;;;8.6;64.8
23253;BME280;11795;47.054;15.408;2022-11-21T10:52:05;96520;;;8.4;66.5
23253;BME280;11795;47.054;15.408;2022-11-21T10:54:11;96510;;;8.4;67.1
23253;BME280;11795;47.054;15.408;2022-11-21T10:56:02;96510;;;8.4;66.9
23253;BME280;11795;47.054;15.408;2022-11-21T10:58:16;96510;;;8.4;67.4
23253;BME280;11795;47.054;15.408;2022-11-21T11:00:12;96510;;;8.7;67.5
23253;BME280;11795;47.054;15.408;2022-11-21T11:02:02;96510;;;8.7;67.8
23253;BME280;11795;47.054;15.408;2022-11-21T11:04:06;96510;;;8.7;68.6
23253;BME280;11795;47.054;15.408;2022-11-21T11:06:00;96500;;;9.0;68.2
23253;BME280;11795;47.054;15.408;2022-11-21T11:08:03;96500;;;9.2;67.8
23253;BME280;11795;47.054;15.408;2022-11-21T11:10:14;96500;;;9.6;66.2
23253;BME280;11795;47.054;15.408;2022-11-21T11:14:01;96500;;;9.7;65.1
23253;BME280;11795;47.054;15.408;2022-11-21T11:16:04;96500;;;9.8;64.5
23253;BME280;11795;47.054;15.408;2022-11-21T11:18:01;96500;;;9.6;65.1
23253;BME280;11795;47.054;15.408;2022-11-21T11:20:03;96500;;;9.8;64.8
23253;BME280;11795;47.054;15.408;2022-11-21T11:22:00;96500;;;9.6;63.5
23253;BME280;11795;47.054;15.408;2022-11-21T11:24:19;96500;;;9.7;64.0
23253;BME280;11795;47.054;15.408;2022-11-21T11:26:00;96500;;;9.5;65.1
23253;BME280;11795;47.054;15.408;2022-11-21T11:28:06;96490;;;9.8;65.0